Time;durP1;ratioP1;P1;durP2;ratioP2;P2;SDS_P1;SDS_P2;PMS_P1;PMS_P2;Temp;Humidity;BMP_temperature;BMP_pressure;BME280_temperature;BME280_humidity;BME280_pressure;Samples;Min_cycle;Max_cycle;Signal;HPM_P1;HPM_P2
2023/07/29 00:00:22;;;;;;;1.43;1.33;;;16.20;99.90;;;;;;5020453;28;20469;-93
2023/07/29 00:02:50;;;;;;;2.70;1.60;;;16.20;99.90;;;;;;5020703;28;20462;-94
2023/07/29 00:05:17;;;;;;;1.30;1.20;;;16.20;99.90;;;;;;5023459;28;20440;-93
2023/07/29 00:07:44;;;;;;;2.03;1.70;;;16.20;99.90;;;;;;5028569;28;20456;-93
2023/07/29 00:10:11;;;;;;;2.23;1.60;;;16.20;99.90;;;;;;5016889;28;20450;-93
2023/07/29 00:12:38;;;;;;;1.80;1.40;;;16.20;99.90;;;;;;5016345;28;20482;-93
2023/07/29 00:15:06;;;;;;;1.97;1.67;;;16.30;99.90;;;;;;5013689;28;20462;-94
2023/07/29 00:17:35;;;;;;;1.50;1.40;;;16.30;99.90;;;;;;5013561;28;20464;-92
2023/07/29 00:20:05;;;;;;;1.57;1.40;;;16.30;99.90;;;;;;5015697;28;20510;-93
2023/07/29 00:22:32;;;;;;;1.70;1.30;;;16.30;99.90;;;;;;5021131;28;20479;-92
2023/07/29 00:24:59;;;;;;;1.93;1.70;;;16.30;99.90;;;;;;5024857;28;20961;-93
2023/07/29 00:30:09;;;;;;;1.70;1.43;;;16.30;99.90;;;;;;5024592;28;20452;-92
2023/07/29 00:32:36;;;;;;;1.83;1.70;;;16.30;99.90;;;;;;5024888;28;20470;-92
2023/07/29 00:35:05;;;;;;;1.53;1.20;;;16.30;99.90;;;;;;5023884;28;20549;-92
2023/07/29 00:37:32;;;;;;;1.67;1.50;;;16.40;99.90;;;;;;5024449;28;20553;-93
2023/07/29 00:39:59;;;;;;;1.53;1.43;;;16.40;99.90;;;;;;5024547;28;20487;-93
2023/07/29 00:42:26;;;;;;;2.27;1.80;;;16.40;99.90;;;;;;5025183;28;20508;-93
2023/07/29 00:44:53;;;;;;;1.63;1.50;;;16.40;99.90;;;;;;5024018;28;20462;-93
2023/07/29 00:47:21;;;;;;;1.60;1.20;;;16.40;99.90;;;;;;5024505;28;20538;-94
2023/07/29 00:49:48;;;;;;;2.00;1.80;;;16.40;99.90;;;;;;5025583;28;20542;-92
2023/07/29 00:52:16;;;;;;;1.73;1.60;;;16.40;99.90;;;;;;5025800;28;20488;-92
2023/07/29 00:54:46;;;;;;;1.37;1.27;;;16.40;99.90;;;;;;5027860;28;21011;-92
2023/07/29 00:57:16;;;;;;;2.80;1.40;;;16.40;99.90;;;;;;5026963;28;20457;-93
2023/07/29 00:59:46;;;;;;;1.50;1.40;;;16.40;99.90;;;;;;5026044;28;20488;-91
2023/07/29 01:02:13;;;;;;;2.40;0.93;;;16.40;99.90;;;;;;5025215;28;20516;-92
2023/07/29 01:04:40;;;;;;;2.50;1.60;;;16.40;99.90;;;;;;5025101;28;20531;-93
2023/07/29 01:07:15;;;;;;;2.07;1.57;;;16.40;99.90;;;;;;5023428;28;20458;-92
2023/07/29 01:09:57;;;;;;;2.70;1.40;;;16.40;99.90;;;;;;5023780;28;20532;-93
2023/07/29 01:12:33;;;;;;;1.20;1.10;;;16.50;99.90;;;;;;5028440;28;20859;-92
2023/07/29 01:15:10;;;;;;;1.90;1.70;;;16.50;99.90;;;;;;5026844;28;20564;-92
2023/07/29 01:17:43;;;;;;;1.67;1.40;;;16.50;99.90;;;;;;5027131;28;20528;-93
2023/07/29 01:20:14;;;;;;;1.50;1.20;;;16.50;99.90;;;;;;5025951;28;20493;-92
2023/07/29 01:22:42;;;;;;;1.30;1.20;;;16.50;99.90;;;;;;5027224;28;20463;-92
2023/07/29 01:25:11;;;;;;;1.67;1.40;;;16.50;99.90;;;;;;5026758;28;20490;-92
2023/07/29 01:27:37;;;;;;;1.30;1.20;;;16.50;99.90;;;;;;5028592;28;20462;-93
2023/07/29 01:30:06;;;;;;;1.73;1.63;;;16.50;99.90;;;;;;5028223;28;20464;-92
2023/07/29 01:32:40;;;;;;;1.77;1.43;;;16.50;99.90;;;;;;5029085;28;20489;-92
2023/07/29 01:35:17;;;;;;;1.70;1.40;;;16.50;99.90;;;;;;5028241;28;20490;-93
2023/07/29 01:37:49;;;;;;;1.30;1.20;;;16.50;99.90;;;;;;5032022;28;20458;-92
2023/07/29 01:40:22;;;;;;;1.40;1.30;;;16.50;99.90;;;;;;5034368;28;20494;-92
2023/07/29 01:42:49;;;;;;;1.47;1.37;;;16.50;99.90;;;;;;5036246;28;20534;-93
2023/07/29 01:45:16;;;;;;;1.70;1.50;;;16.50;99.90;;;;;;5037788;28;20477;-92
2023/07/29 01:47:43;;;;;;;1.63;1.53;;;16.50;99.90;;;;;;5037347;28;20439;-93
2023/07/29 01:50:16;;;;;;;1.43;1.30;;;16.50;99.90;;;;;;5037814;28;20448;-93
2023/07/29 01:52:45;;;;;;;1.40;1.20;;;16.60;99.90;;;;;;5037590;28;20490;-94
2023/07/29 01:55:12;;;;;;;1.40;1.30;;;16.60;99.90;;;;;;5036781;28;20462;-92
2023/07/29 01:57:40;;;;;;;1.30;1.13;;;16.60;99.90;;;;;;5036821;28;20458;-94
2023/07/29 02:00:08;;;;;;;1.43;1.33;;;16.60;99.90;;;;;;5036802;28;20485;-92
2023/07/29 02:02:35;;;;;;;1.30;1.20;;;16.60;99.90;;;;;;5037239;28;20463;-93
2023/07/29 02:05:08;;;;;;;1.73;1.30;;;16.60;99.90;;;;;;5036858;28;20470;-93
2023/07/29 02:07:42;;;;;;;1.13;1.03;;;16.60;99.90;;;;;;5037892;28;20534;-94
2023/07/29 02:12:55;;;;;;;1.63;1.53;;;16.60;99.90;;;;;;5037517;28;20483;-94
2023/07/29 02:15:24;;;;;;;1.90;1.43;;;16.60;99.90;;;;;;5037896;28;20460;-92
2023/07/29 02:17:54;;;;;;;1.50;1.37;;;16.50;99.90;;;;;;5037231;28;20477;-92
2023/07/29 02:20:21;;;;;;;1.53;1.33;;;16.60;99.90;;;;;;5036328;28;20483;-93
2023/07/29 02:25:31;;;;;;;1.60;1.30;;;16.50;99.90;;;;;;5035602;28;20443;-93
2023/07/29 02:28:00;;;;;;;1.43;1.20;;;16.50;99.90;;;;;;5036402;28;20887;-94
2023/07/29 02:30:27;;;;;;;1.60;1.50;;;16.50;99.90;;;;;;5036866;28;20466;-93
2023/07/29 02:32:57;;;;;;;1.50;1.40;;;16.50;99.90;;;;;;5036379;28;20525;-92
2023/07/29 02:35:24;;;;;;;1.87;1.60;;;16.50;99.90;;;;;;5036251;28;20439;-92
2023/07/29 02:37:50;;;;;;;1.70;1.60;;;16.40;99.90;;;;;;5035475;28;20488;-93
2023/07/29 02:40:20;;;;;;;2.10;1.90;;;16.40;99.90;;;;;;5034785;28;20511;-93
2023/07/29 02:42:47;;;;;;;1.70;1.40;;;16.40;99.90;;;;;;5039099;28;20506;-93
2023/07/29 02:45:15;;;;;;;1.60;1.50;;;16.40;99.90;;;;;;5039079;28;20440;-93
2023/07/29 02:47:42;;;;;;;2.00;1.43;;;16.40;99.90;;;;;;5038691;28;20513;-93
2023/07/29 02:50:10;;;;;;;1.93;1.50;;;16.40;99.90;;;;;;5039227;28;20469;-94
2023/07/29 02:52:39;;;;;;;1.60;1.10;;;16.40;99.90;;;;;;5038942;28;20506;-95
2023/07/29 02:55:07;;;;;;;1.73;1.53;;;16.40;99.90;;;;;;5038962;28;20483;-94
2023/07/29 02:57:34;;;;;;;1.27;1.17;;;16.40;99.90;;;;;;5038892;28;20462;-94
2023/07/29 03:00:01;;;;;;;3.40;1.53;;;16.40;99.90;;;;;;5039016;28;20491;-94
2023/07/29 03:02:32;;;;;;;1.50;1.40;;;16.40;99.90;;;;;;5038478;28;20995;-94
2023/07/29 03:04:59;;;;;;;1.50;1.40;;;16.40;99.90;;;;;;5030619;28;20498;-92
2023/07/29 03:07:26;;;;;;;1.77;1.53;;;16.40;99.90;;;;;;5030676;28;20486;-92
2023/07/29 03:09:53;;;;;;;1.30;1.20;;;16.40;99.90;;;;;;5029746;28;20544;-92
2023/07/29 03:12:21;;;;;;;1.43;1.33;;;16.40;99.90;;;;;;5029562;28;20489;-93
2023/07/29 03:14:49;;;;;;;1.83;1.27;;;16.40;99.90;;;;;;5025189;28;20464;-92
2023/07/29 03:17:16;;;;;;;1.30;1.17;;;16.40;99.90;;;;;;5024590;28;20472;-92
2023/07/29 03:19:44;;;;;;;2.70;1.73;;;16.40;99.90;;;;;;5025504;28;20832;-93
2023/07/29 03:22:12;;;;;;;1.40;1.30;;;16.40;99.90;;;;;;5025969;28;20497;-92
2023/07/29 03:24:39;;;;;;;1.57;1.43;;;16.40;99.90;;;;;;5028570;28;20926;-93
2023/07/29 03:27:06;;;;;;;1.53;1.33;;;16.40;99.90;;;;;;5024682;28;20994;-92
2023/07/29 03:29:33;;;;;;;2.43;1.20;;;16.50;99.90;;;;;;5025091;28;20540;-92
2023/07/29 03:32:00;;;;;;;1.50;1.40;;;16.50;99.90;;;;;;5024393;28;20518;-94
2023/07/29 03:34:27;;;;;;;1.50;1.30;;;16.50;99.90;;;;;;5022047;28;20571;-93
2023/07/29 03:36:55;;;;;;;1.53;1.43;;;16.50;99.90;;;;;;5020792;28;20565;-92
2023/07/29 03:39:22;;;;;;;1.30;1.20;;;16.50;99.90;;;;;;5020203;28;20462;-92
2023/07/29 03:41:49;;;;;;;1.23;1.13;;;16.50;99.90;;;;;;5020080;28;20488;-92
2023/07/29 03:44:17;;;;;;;1.50;1.27;;;16.50;99.90;;;;;;5020491;28;20543;-92
2023/07/29 03:46:44;;;;;;;3.07;1.87;;;16.50;99.90;;;;;;5020694;28;20467;-92
2023/07/29 03:49:11;;;;;;;2.17;1.70;;;16.50;99.90;;;;;;5019779;28;20472;-94
2023/07/29 03:51:38;;;;;;;2.00;1.80;;;16.50;99.90;;;;;;5020515;28;20556;-92
2023/07/29 03:54:06;;;;;;;1.67;1.47;;;16.60;99.90;;;;;;5020466;28;20491;-92
2023/07/29 03:56:35;;;;;;;1.67;1.30;;;16.50;99.90;;;;;;5020703;28;20558;-92
2023/07/29 03:59:04;;;;;;;1.67;1.37;;;16.60;99.90;;;;;;5020157;28;20463;-92
2023/07/29 04:01:31;;;;;;;1.63;1.53;;;16.60;99.90;;;;;;5020490;28;20481;-92
2023/07/29 04:03:58;;;;;;;1.67;1.57;;;16.60;99.90;;;;;;5020414;28;20482;-93
2023/07/29 04:06:25;;;;;;;2.00;1.57;;;16.60;99.90;;;;;;5020876;28;20473;-92
2023/07/29 04:08:52;;;;;;;2.20;1.80;;;16.60;99.90;;;;;;5021958;28;20468;-92
2023/07/29 04:11:21;;;;;;;2.23;1.97;;;16.60;99.90;;;;;;5021067;28;20525;-93
2023/07/29 04:13:48;;;;;;;1.80;1.60;;;16.60;99.90;;;;;;5021582;28;20489;-92
2023/07/29 04:16:15;;;;;;;1.97;1.53;;;16.70;99.90;;;;;;5020413;28;20469;-93
2023/07/29 04:18:42;;;;;;;2.10;1.80;;;16.70;99.90;;;;;;5021372;28;20560;-92
2023/07/29 04:21:09;;;;;;;1.23;1.13;;;16.70;99.90;;;;;;5020550;28;20565;-92
2023/07/29 04:23:36;;;;;;;1.97;1.77;;;16.70;99.90;;;;;;5021566;28;20490;-92
2023/07/29 04:26:03;;;;;;;4.93;1.47;;;16.70;99.90;;;;;;5020487;28;20467;-92
2023/07/29 04:28:31;;;;;;;2.53;1.80;;;16.70;99.90;;;;;;5020290;28;20471;-92
2023/07/29 04:30:58;;;;;;;2.77;1.67;;;16.70;99.90;;;;;;5017929;28;20462;-92
2023/07/29 04:33:25;;;;;;;2.73;2.03;;;16.70;99.90;;;;;;4999841;28;20502;-92
2023/07/29 04:35:51;;;;;;;2.73;1.80;;;16.70;99.90;;;;;;5000318;28;20506;-92
2023/07/29 04:38:18;;;;;;;2.37;2.17;;;16.70;99.90;;;;;;5004515;28;20493;-92
2023/07/29 04:40:45;;;;;;;1.50;1.40;;;16.70;99.90;;;;;;5001677;28;20534;-92
2023/07/29 04:43:12;;;;;;;1.83;1.73;;;16.80;99.90;;;;;;5002229;28;20488;-92
2023/07/29 04:45:45;;;;;;;1.77;1.60;;;16.80;99.90;;;;;;5001584;28;20568;-92
2023/07/29 04:48:12;;;;;;;1.93;1.63;;;16.80;99.90;;;;;;5004326;28;20466;-92
2023/07/29 04:50:39;;;;;;;1.87;1.57;;;16.80;99.90;;;;;;5004949;28;20481;-92
2023/07/29 04:53:06;;;;;;;1.40;1.30;;;16.80;99.90;;;;;;5003659;28;20580;-92
2023/07/29 04:55:33;;;;;;;2.90;2.20;;;16.80;99.90;;;;;;5015670;28;20543;-94
2023/07/29 04:58:00;;;;;;;1.53;1.43;;;16.90;99.90;;;;;;5020272;28;20468;-93
2023/07/29 05:00:27;;;;;;;1.57;1.43;;;16.90;99.90;;;;;;5018005;28;20476;-93
2023/07/29 05:02:55;;;;;;;2.20;2.00;;;16.90;99.90;;;;;;5002556;28;20476;-92
2023/07/29 05:05:22;;;;;;;6.97;1.80;;;16.90;99.90;;;;;;5004877;28;20469;-92
2023/07/29 05:07:49;;;;;;;2.67;2.20;;;16.90;99.90;;;;;;5006149;28;20473;-93
2023/07/29 05:10:16;;;;;;;2.13;1.90;;;16.90;99.90;;;;;;5005909;28;20504;-93
2023/07/29 05:12:43;;;;;;;2.80;1.57;;;16.90;99.90;;;;;;5016314;28;20462;-95
2023/07/29 05:15:11;;;;;;;3.53;2.10;;;17.00;99.90;;;;;;5021356;28;20445;-95
2023/07/29 05:17:38;;;;;;;2.60;1.80;;;17.00;99.90;;;;;;5020977;28;20519;-95
2023/07/29 05:20:07;;;;;;;3.80;2.27;;;17.00;99.90;;;;;;5021074;28;20464;-95
2023/07/29 05:22:34;;;;;;;2.87;1.93;;;17.00;99.90;;;;;;5021197;28;20573;-94
2023/07/29 05:25:01;;;;;;;2.03;1.87;;;17.00;99.90;;;;;;5021011;28;20516;-94
2023/07/29 05:27:28;;;;;;;2.00;1.80;;;17.10;99.90;;;;;;5020845;28;20468;-92
2023/07/29 05:29:55;;;;;;;2.47;2.03;;;17.10;99.90;;;;;;5020532;28;20513;-93
2023/07/29 05:32:22;;;;;;;4.80;1.97;;;17.10;99.90;;;;;;5020398;28;20535;-93
2023/07/29 05:34:49;;;;;;;2.40;2.20;;;17.10;99.90;;;;;;5073306;23;20500;-92
2023/07/29 05:37:17;;;;;;;2.73;2.23;;;17.10;99.90;;;;;;5013716;28;20460;-93
2023/07/29 05:39:44;;;;;;;2.47;1.70;;;17.10;99.90;;;;;;5011334;28;20466;-93
2023/07/29 05:42:10;;;;;;;2.33;2.00;;;17.20;99.90;;;;;;5011254;28;20480;-92
2023/07/29 05:44:37;;;;;;;2.60;1.97;;;17.20;99.90;;;;;;5012940;28;20477;-92
2023/07/29 05:47:04;;;;;;;3.07;2.43;;;17.30;99.90;;;;;;5017702;28;20443;-92
2023/07/29 05:49:31;;;;;;;2.27;2.07;;;17.30;99.90;;;;;;5026018;28;20462;-93
2023/07/29 05:51:58;;;;;;;2.60;2.40;;;17.40;99.90;;;;;;5023292;28;20528;-93
2023/07/29 05:54:33;;;;;;;2.70;2.03;;;17.50;99.90;;;;;;5019923;28;20483;-94
2023/07/29 05:56:59;;;;;;;2.10;1.90;;;17.50;99.90;;;;;;5015600;28;20472;-94
2023/07/29 05:59:29;;;;;;;1.87;1.50;;;17.60;99.90;;;;;;5019097;28;20469;-94
2023/07/29 06:01:55;;;;;;;2.43;1.93;;;17.70;99.90;;;;;;5019803;28;20504;-93
2023/07/29 06:04:22;;;;;;;1.93;1.53;;;17.70;99.90;;;;;;5018929;28;20491;-93
2023/07/29 06:06:49;;;;;;;1.90;1.40;;;17.80;99.90;;;;;;5018374;28;20454;-92
2023/07/29 06:09:16;;;;;;;2.13;2.00;;;17.80;99.90;;;;;;5017934;28;20459;-92
2023/07/29 06:11:44;;;;;;;3.23;2.07;;;17.80;99.90;;;;;;5019205;28;20472;-94
2023/07/29 06:14:11;;;;;;;1.87;1.30;;;17.90;99.90;;;;;;5016310;28;20488;-92
2023/07/29 06:16:37;;;;;;;2.07;1.87;;;17.90;99.90;;;;;;5027591;28;20453;-93
2023/07/29 06:19:04;;;;;;;2.23;1.80;;;18.10;99.90;;;;;;5026571;28;20540;-93
2023/07/29 06:21:31;;;;;;;1.80;1.70;;;18.10;99.90;;;;;;5024778;28;20538;-93
2023/07/29 06:23:58;;;;;;;1.80;1.40;;;18.20;99.90;;;;;;5017576;28;20574;-93
2023/07/29 06:26:25;;;;;;;1.73;1.60;;;18.20;99.90;;;;;;5005076;28;20469;-93
2023/07/29 06:28:53;;;;;;;2.07;1.77;;;18.30;99.90;;;;;;5016455;28;20455;-95
2023/07/29 06:31:19;;;;;;;2.03;1.53;;;18.30;99.90;;;;;;5016353;28;20475;-93
2023/07/29 06:33:46;;;;;;;2.70;1.73;;;18.40;99.90;;;;;;5022128;28;20480;-94
2023/07/29 06:36:13;;;;;;;2.53;1.73;;;18.40;99.90;;;;;;5006896;28;20465;-94
2023/07/29 06:38:40;;;;;;;2.30;2.10;;;18.40;99.90;;;;;;5013217;28;20559;-94
2023/07/29 06:41:07;;;;;;;1.57;1.40;;;18.40;99.90;;;;;;5011758;28;20587;-93
2023/07/29 06:43:34;;;;;;;3.73;1.80;;;18.40;99.90;;;;;;5012529;28;20485;-93
2023/07/29 06:46:02;;;;;;;2.10;1.53;;;18.40;99.90;;;;;;5010902;28;20469;-93
2023/07/29 06:48:29;;;;;;;2.10;1.87;;;18.40;99.90;;;;;;5018998;28;20463;-95
2023/07/29 06:51:00;;;;;;;1.87;1.67;;;18.40;99.90;;;;;;5022847;28;20458;-94
2023/07/29 06:53:27;;;;;;;2.45;1.90;;;18.40;99.90;;;;;;5024907;28;20446;-95
2023/07/29 06:56:30;;;;;;;2.07;1.87;;;18.30;99.90;;;;;;5028920;28;20193;-93
2023/07/29 06:58:57;;;;;;;3.63;2.03;;;18.30;99.90;;;;;;5018355;28;20454;-93
2023/07/29 07:01:25;;;;;;;1.97;1.77;;;18.30;99.90;;;;;;5020671;28;20485;-92
2023/07/29 07:03:54;;;;;;;1.70;1.43;;;18.20;99.90;;;;;;5021047;28;20488;-93
2023/07/29 07:06:21;;;;;;;2.10;1.90;;;18.10;99.90;;;;;;5021082;28;20463;-92
2023/07/29 07:08:48;;;;;;;2.07;1.60;;;18.10;99.90;;;;;;5025910;28;20461;-93
2023/07/29 07:11:15;;;;;;;2.20;1.97;;;18.10;99.90;;;;;;5029988;28;20475;-93
2023/07/29 07:13:41;;;;;;;1.77;1.67;;;18.00;99.90;;;;;;5023315;28;20474;-93
2023/07/29 07:16:08;;;;;;;2.00;1.80;;;17.90;99.90;;;;;;5019091;28;20476;-92
2023/07/29 07:18:36;;;;;;;1.53;1.33;;;17.90;99.90;;;;;;5016038;28;20468;-93
2023/07/29 07:21:03;;;;;;;1.60;1.50;;;17.90;99.90;;;;;;5009051;28;20464;-92
2023/07/29 07:23:30;;;;;;;3.70;2.00;;;17.90;99.90;;;;;;5013187;28;20491;-92
2023/07/29 07:25:56;;;;;;;2.60;2.03;;;17.90;99.90;;;;;;5012192;28;20467;-92
2023/07/29 07:28:23;;;;;;;2.93;1.97;;;17.90;99.90;;;;;;5011596;28;20455;-93
2023/07/29 07:30:50;;;;;;;2.03;1.83;;;17.90;99.90;;;;;;5015309;28;20468;-92
2023/07/29 07:33:16;;;;;;;2.37;1.50;;;17.90;99.90;;;;;;5016915;28;20482;-93
2023/07/29 07:35:45;;;;;;;2.23;2.03;;;17.90;99.90;;;;;;5015548;28;20962;-92
2023/07/29 07:38:11;;;;;;;2.60;1.60;;;18.00;99.90;;;;;;5013741;28;20467;-92
2023/07/29 07:40:38;;;;;;;2.10;1.70;;;18.00;99.90;;;;;;5013300;28;20468;-94
2023/07/29 07:43:05;;;;;;;2.10;1.80;;;18.00;99.90;;;;;;5010385;28;20483;-92
2023/07/29 07:45:33;;;;;;;2.20;1.60;;;18.10;99.90;;;;;;5014167;28;21016;-93
2023/07/29 07:48:00;;;;;;;1.37;1.27;;;18.10;99.90;;;;;;5019251;28;20525;-94
2023/07/29 07:50:30;;;;;;;2.03;1.50;;;18.10;99.90;;;;;;5024223;28;20495;-92
2023/07/29 07:52:58;;;;;;;1.70;1.60;;;18.10;99.90;;;;;;5014964;28;20458;-93
2023/07/29 07:55:25;;;;;;;1.33;1.23;;;18.20;99.90;;;;;;5019204;28;20461;-93
2023/07/29 07:57:52;;;;;;;2.10;1.90;;;18.20;99.90;;;;;;5017978;28;20471;-93
2023/07/29 08:00:19;;;;;;;1.83;1.60;;;18.20;99.90;;;;;;5014955;28;20465;-92
2023/07/29 08:02:46;;;;;;;1.80;1.47;;;18.20;99.90;;;;;;5015635;28;20544;-94
2023/07/29 08:05:13;;;;;;;1.60;1.50;;;18.30;99.90;;;;;;5010192;28;20461;-92
2023/07/29 08:07:40;;;;;;;2.40;1.43;;;18.30;99.90;;;;;;5001033;28;20465;-91
2023/07/29 08:10:09;;;;;;;2.63;1.47;;;18.40;99.90;;;;;;5004915;28;20469;-93
2023/07/29 08:12:35;;;;;;;1.83;1.37;;;18.50;99.90;;;;;;5010650;28;20470;-92
2023/07/29 08:15:02;;;;;;;2.27;1.10;;;18.50;99.90;;;;;;4994884;28;20830;-92
2023/07/29 08:17:29;;;;;;;1.57;1.40;;;18.60;99.90;;;;;;5012587;28;20485;-93
2023/07/29 08:19:56;;;;;;;1.53;1.30;;;18.70;99.90;;;;;;5005225;28;20497;-92
2023/07/29 08:22:28;;;;;;;1.80;1.53;;;18.80;99.90;;;;;;5013740;28;20495;-93
2023/07/29 08:24:55;;;;;;;2.97;1.57;;;18.80;99.90;;;;;;5006438;28;20488;-94
2023/07/29 08:27:23;;;;;;;1.50;1.40;;;18.80;99.90;;;;;;5015896;28;20473;-93
2023/07/29 08:29:50;;;;;;;1.77;1.60;;;18.90;99.90;;;;;;5015137;28;20473;-93
2023/07/29 08:32:16;;;;;;;1.87;1.43;;;19.00;99.90;;;;;;5014871;28;20461;-94
2023/07/29 08:34:43;;;;;;;2.23;1.77;;;19.10;99.90;;;;;;5014940;28;20492;-92
2023/07/29 08:37:10;;;;;;;1.50;1.40;;;19.20;99.90;;;;;;5014926;28;21054;-92
2023/07/29 08:39:36;;;;;;;1.67;1.40;;;19.30;99.90;;;;;;4997814;28;20474;-93
2023/07/29 08:42:09;;;;;;;1.47;1.37;;;19.40;99.90;;;;;;5005522;28;20478;-93
2023/07/29 08:44:43;;;;;;;3.17;1.60;;;19.50;99.90;;;;;;5013221;28;20580;-92
2023/07/29 08:47:09;;;;;;;1.70;1.50;;;19.60;99.90;;;;;;5003193;28;20465;-94
2023/07/29 08:49:38;;;;;;;1.83;1.40;;;19.80;99.90;;;;;;5020142;28;20469;-92
2023/07/29 08:52:06;;;;;;;1.70;1.60;;;20.00;99.90;;;;;;5006201;28;20466;-93
2023/07/29 08:54:34;;;;;;;2.10;1.50;;;20.10;99.90;;;;;;5006423;28;20485;-92
2023/07/29 08:57:01;;;;;;;1.73;1.40;;;20.20;99.90;;;;;;5002257;28;20493;-94
2023/07/29 08:59:29;;;;;;;1.90;1.37;;;20.30;99.90;;;;;;5007336;28;20469;-94
2023/07/29 09:01:58;;;;;;;2.20;2.00;;;20.30;99.90;;;;;;5007401;28;20485;-93
2023/07/29 09:04:25;;;;;;;1.70;1.53;;;20.40;99.90;;;;;;5008908;28;20482;-92
2023/07/29 09:06:52;;;;;;;1.73;1.33;;;20.50;99.90;;;;;;5011101;28;20466;-93
2023/07/29 09:09:19;;;;;;;2.43;1.83;;;20.50;99.90;;;;;;5012989;28;20469;-93
2023/07/29 09:11:46;;;;;;;1.37;1.27;;;20.50;99.90;;;;;;5010554;28;20463;-93
2023/07/29 09:14:14;;;;;;;1.30;1.20;;;20.60;99.90;;;;;;5008442;28;20482;-93
2023/07/29 09:16:41;;;;;;;2.10;1.90;;;20.60;99.90;;;;;;5010953;28;20473;-93
2023/07/29 09:19:09;;;;;;;1.77;1.67;;;20.60;99.90;;;;;;5012310;28;20473;-93
2023/07/29 09:21:42;;;;;;;2.37;1.70;;;20.70;99.90;;;;;;5005327;28;20459;-93
2023/07/29 09:24:10;;;;;;;1.70;1.60;;;21.00;99.90;;;;;;5012372;28;20994;-93
2023/07/29 09:26:37;;;;;;;1.70;1.50;;;21.30;99.90;;;;;;5011350;28;20461;-94
2023/07/29 09:29:04;;;;;;;1.80;1.63;;;21.60;99.90;;;;;;5009220;28;20460;-93
2023/07/29 09:31:31;;;;;;;5.13;1.97;;;21.70;99.90;;;;;;5018319;28;20460;-94
2023/07/29 09:33:59;;;;;;;1.80;1.60;;;21.70;99.90;;;;;;5013615;28;21127;-94
2023/07/29 09:36:27;;;;;;;1.83;1.70;;;21.60;99.90;;;;;;5019811;28;20464;-93
2023/07/29 09:38:55;;;;;;;2.30;1.43;;;21.50;99.90;;;;;;5016168;28;20468;-93
2023/07/29 09:41:23;;;;;;;2.50;1.63;;;21.50;99.90;;;;;;5015848;28;20467;-93
2023/07/29 09:43:57;;;;;;;1.80;1.30;;;21.50;99.90;;;;;;5013161;28;20523;-94
2023/07/29 09:46:25;;;;;;;1.40;1.30;;;21.40;99.90;;;;;;5013020;28;20480;-93
2023/07/29 09:48:54;;;;;;;1.40;1.30;;;21.60;99.90;;;;;;5015451;28;20499;-95
2023/07/29 09:51:30;;;;;;;1.57;1.47;;;21.70;99.90;;;;;;5007248;28;20464;-95
2023/07/29 09:54:00;;;;;;;2.03;1.53;;;21.70;99.90;;;;;;5009947;28;20490;-94
2023/07/29 09:56:27;;;;;;;2.20;1.60;;;21.80;99.90;;;;;;5008527;28;20486;-92
2023/07/29 09:58:56;;;;;;;1.60;1.43;;;21.80;99.90;;;;;;5013359;28;20464;-94
2023/07/29 10:01:29;;;;;;;2.10;1.57;;;22.00;99.90;;;;;;5015415;28;20491;-94
2023/07/29 10:04:05;;;;;;;2.10;1.90;;;22.30;99.90;;;;;;5005367;28;20484;-93
2023/07/29 10:06:50;;;;;;;1.40;1.30;;;22.50;99.90;;;;;;5017947;28;20889;-93
2023/07/29 10:09:19;;;;;;;2.17;1.73;;;22.50;99.90;;;;;;5028006;28;20477;-93
2023/07/29 10:11:46;;;;;;;1.90;1.80;;;22.50;99.90;;;;;;5019997;28;20497;-91
2023/07/29 10:14:22;;;;;;;4.27;2.13;;;22.50;99.90;;;;;;5015787;28;20488;-93
2023/07/29 10:16:51;;;;;;;2.03;1.53;;;22.30;99.90;;;;;;5017960;28;20466;-92
2023/07/29 10:19:19;;;;;;;1.93;1.73;;;22.30;99.90;;;;;;5023150;28;20465;-93
2023/07/29 10:21:50;;;;;;;1.87;1.67;;;22.40;99.90;;;;;;5023856;28;20477;-92
2023/07/29 10:24:22;;;;;;;1.50;1.40;;;22.40;99.90;;;;;;5024181;28;20530;-93
2023/07/29 10:26:51;;;;;;;2.80;2.20;;;22.40;99.90;;;;;;5026454;28;20464;-92
2023/07/29 10:29:28;;;;;;;2.47;1.90;;;22.40;99.90;;;;;;5025412;28;20492;-92
2023/07/29 10:31:58;;;;;;;2.50;1.97;;;22.60;99.90;;;;;;5013941;28;20454;-94
2023/07/29 10:34:33;;;;;;;1.80;1.43;;;22.90;99.90;;;;;;5019344;28;20540;-91
2023/07/29 10:37:01;;;;;;;3.13;2.00;;;23.20;99.90;;;;;;5014785;28;20481;-91
2023/07/29 10:39:28;;;;;;;2.63;1.80;;;23.50;99.90;;;;;;5010379;28;20457;-93
2023/07/29 10:41:59;;;;;;;1.50;1.40;;;23.60;99.90;;;;;;5012610;28;20465;-92
2023/07/29 10:44:50;;;;;;;1.60;1.47;;;23.60;99.90;;;;;;5010658;28;20581;-92
2023/07/29 10:47:38;;;;;;;2.83;2.10;;;23.80;99.90;;;;;;5008913;28;20458;-92
2023/07/29 10:50:18;;;;;;;1.67;1.57;;;23.60;99.90;;;;;;5010883;28;20466;-93
2023/07/29 10:53:14;;;;;;;1.57;1.47;;;23.50;99.90;;;;;;5010160;28;20454;-92
2023/07/29 10:55:42;;;;;;;1.70;1.60;;;23.50;99.90;;;;;;5004669;28;20458;-93
2023/07/29 10:58:13;;;;;;;3.00;1.97;;;23.70;99.90;;;;;;5007025;28;20469;-92
2023/07/29 11:01:04;;;;;;;2.00;1.80;;;23.80;99.90;;;;;;5004399;28;20458;-93
2023/07/29 11:03:31;;;;;;;2.07;1.87;;;23.90;99.90;;;;;;5004219;28;20482;-92
2023/07/29 11:06:05;;;;;;;1.60;1.37;;;24.00;99.90;;;;;;5002409;28;20462;-93
2023/07/29 11:08:34;;;;;;;2.80;1.87;;;24.10;99.90;;;;;;5001426;28;20460;-93
2023/07/29 11:11:06;;;;;;;1.67;1.57;;;24.30;99.90;;;;;;5002168;28;20459;-93
2023/07/29 11:13:35;;;;;;;1.83;1.67;;;24.40;99.90;;;;;;5000296;28;20475;-93
2023/07/29 11:16:02;;;;;;;2.07;1.70;;;24.40;99.90;;;;;;5000743;28;20497;-91
2023/07/29 11:18:30;;;;;;;1.70;1.60;;;24.40;99.90;;;;;;5000522;28;20459;-93
2023/07/29 11:20:58;;;;;;;1.50;1.40;;;24.40;99.90;;;;;;5000578;28;20506;-92
2023/07/29 11:23:30;;;;;;;1.70;1.53;;;24.40;99.90;;;;;;5000476;28;20494;-93
2023/07/29 11:25:59;;;;;;;1.63;1.50;;;24.40;99.90;;;;;;5006060;28;20484;-92
2023/07/29 11:28:26;;;;;;;1.70;1.50;;;24.30;99.90;;;;;;5004990;28;20501;-92
2023/07/29 11:30:55;;;;;;;2.07;1.87;;;24.20;99.90;;;;;;5001943;28;20493;-92
2023/07/29 11:33:23;;;;;;;3.47;1.80;;;24.10;99.90;;;;;;5008252;28;20488;-93
2023/07/29 11:35:51;;;;;;;1.97;1.73;;;24.10;99.90;;;;;;5098023;23;20506;-68
2023/07/29 11:38:17;;;;;;;1.53;1.43;;;24.10;99.90;;;;;;5029936;28;20518;-68
2023/07/29 11:40:44;;;;;;;2.67;1.60;;;24.20;99.90;;;;;;5012808;28;20467;-68
2023/07/29 11:43:18;;;;;;;1.90;1.63;;;24.40;99.90;;;;;;5018374;28;20813;-68
2023/07/29 11:45:46;;;;;;;2.43;1.80;;;24.60;99.90;;;;;;5018230;28;20473;-68
2023/07/29 11:48:12;;;;;;;2.23;1.80;;;24.80;99.90;;;;;;5029239;28;20498;-68
2023/07/29 11:50:39;;;;;;;2.83;1.67;;;25.00;99.90;;;;;;5029665;28;20506;-68
2023/07/29 11:53:06;;;;;;;1.77;1.63;;;25.00;99.90;;;;;;5029539;28;20966;-68
2023/07/29 11:55:34;;;;;;;2.30;1.83;;;25.10;99.90;;;;;;5030188;28;20474;-68
2023/07/29 11:58:02;;;;;;;2.47;2.10;;;25.20;99.90;;;;;;5028405;28;20501;-69
2023/07/29 12:00:30;;;;;;;1.70;1.50;;;25.20;99.90;;;;;;5030051;28;20467;-68
2023/07/29 12:02:57;;;;;;;2.10;1.90;;;25.10;99.90;;;;;;5029492;28;20998;-69
2023/07/29 12:05:25;;;;;;;2.10;1.80;;;25.10;99.90;;;;;;5029262;28;20456;-68
2023/07/29 12:07:52;;;;;;;3.00;1.90;;;25.20;99.90;;;;;;5029013;28;20484;-69
2023/07/29 12:10:21;;;;;;;1.67;1.50;;;25.20;99.90;;;;;;5029348;28;20472;-69
2023/07/29 12:12:48;;;;;;;2.20;2.00;;;25.30;99.90;;;;;;5013140;28;20472;-69
2023/07/29 12:15:23;;;;;;;1.53;1.43;;;25.20;99.90;;;;;;5009842;28;20473;-69
2023/07/29 12:17:54;;;;;;;2.57;1.70;;;25.20;99.90;;;;;;5009497;28;20510;-69
2023/07/29 12:20:21;;;;;;;2.10;1.60;;;25.40;99.90;;;;;;5022613;28;20471;-69
2023/07/29 12:22:53;;;;;;;1.90;1.70;;;25.70;99.90;;;;;;5028800;28;20905;-69
2023/07/29 12:25:20;;;;;;;2.13;1.93;;;25.90;99.90;;;;;;5029432;28;20463;-69
2023/07/29 12:27:47;;;;;;;5.00;2.00;;;26.10;99.90;;;;;;5009112;28;20517;-69
2023/07/29 12:30:14;;;;;;;1.80;1.60;;;26.30;99.90;;;;;;5019055;28;20532;-69
2023/07/29 12:32:45;;;;;;;1.40;1.23;;;26.40;99.90;;;;;;5013014;28;20568;-69
2023/07/29 12:35:13;;;;;;;2.03;1.70;;;26.30;99.90;;;;;;5019653;28;20847;-70
2023/07/29 12:37:42;;;;;;;1.60;1.50;;;26.30;99.90;;;;;;5028866;28;20488;-69
2023/07/29 12:40:21;;;;;;;1.70;1.40;;;26.10;99.90;;;;;;5028600;28;20467;-69
2023/07/29 12:42:47;;;;;;;1.70;1.40;;;26.00;99.90;;;;;;5029221;28;20494;-70
2023/07/29 12:45:16;;;;;;;1.57;1.47;;;26.10;99.90;;;;;;5028152;28;20465;-69
2023/07/29 12:47:43;;;;;;;1.60;1.50;;;26.10;99.90;;;;;;5020807;28;20492;-70
2023/07/29 12:50:10;;;;;;;1.90;1.70;;;26.20;99.90;;;;;;5009228;28;20466;-70
2023/07/29 12:52:38;;;;;;;2.10;1.73;;;26.40;99.90;;;;;;5008476;28;20465;-69
2023/07/29 12:55:08;;;;;;;2.00;1.73;;;26.40;99.90;;;;;;5026747;28;20469;-70
2023/07/29 12:57:35;;;;;;;2.00;1.40;;;26.30;99.90;;;;;;5028804;28;20580;-69
2023/07/29 13:00:02;;;;;;;2.23;1.83;;;26.20;99.90;;;;;;5028829;28;20465;-70
2023/07/29 13:02:30;;;;;;;2.40;2.00;;;26.10;99.90;;;;;;5029290;28;20475;-70